Kalaheo, HI (96741)

8:55 AM HST on June 02, 2015 (GMT -1000)
Koloa Landing - Whaler's Cove | | Change Station
CLOSE
Current Station
Personal Weather Station
Location: Koloa, HI
Elevation: 25 ft
Nearby Weather Stations
Active Advisory: High Surf Advisory Active Notice: Record Report

Elev 25 ft 21.88 °N, 159.47 °W | Updated 3 seconds ago

Scattered Clouds
Scattered Clouds
79.2 °F
Feels Like 82 °F
N
5.1
Wind Variable Wind from East
Gusts 7.4 mph

Today
High -- | Low -- °F
--% Chance of Precip.
Yesterday
High -- | Low -- °F
Precip. -- in
5:54 AM 7:18 PM
Full, 100% visible
Pressure 30.09 in
Visibility 10.0 miles
Clouds Scattered Clouds 2300 ft
Heat Index 82 °F
Dew Point 68 °F
Humidity 70%
Rainfall 0.00 in
Snow Depth Not available.
UV 2 out of 12
Pollen Not available.
Air Quality Not available.
Flu Activity Local Activity
METAR PHLI 021753Z 06008KT 10SM SCT023 26/19 A3010 RMK AO2 SLP188 T02560194 10261 20239 51009

More Conditions Fewer Conditions

Pressure 30.09 in
Visibility 10.0 miles
Clouds Scattered Clouds 2300 ft
Heat Index 82 °F
Dew Point 68 °F
Humidity 70%
Rainfall 0.00 in
Snow Depth Not available.
UV 2 out of 12
Pollen Not available.
Air Quality Not available.
Flu Activity Local Activity
METAR PHLI 021753Z 06008KT 10SM SCT023 26/19 A3010 RMK AO2 SLP188 T02560194 10261 20239 51009

More Conditions Fewer Conditions

10-Day Weather Forecast

×

Almanac

Astronomy

Jun. 02, 2015 Rise Set
Actual Time
Civil Twilight
Nautical Twilight
Astronomical Twilight
Moon
Length of Visible Light
Length of Day
Tomorrow will be .
, % of the Moon is Illuminated

Today's Extremes

State Highs State Lows

Community

WunderPhotos

Upload Photos

1,825,997 photos uploaded!

WunderBlogs® & News

Nearby

Air Quality

  Air Quality AQ Index Pollutant
Not available.

Snow Depth

Station Depth Elevation

Earthquake Activity

City Distance Mag. Time & Date
Minimum magnitude displayed is 2.5.

Coastal Water Temperatures

Place Temperature

Stations

Nearby Weather Stations

Station Location Temp. Windchill Dew Point Humidity Wind Precip. Elev Updated Type
                   
High Surf Advisory
Statement as of 3:33 AM HST on June 02, 2015

... High surf advisory remains in effect until 6 PM HST this
evening...

A high surf advisory remains in effect until 6 PM HST this
evening.

* Surf... 6 to 10 feet along south facing shores.

* Timing... slowly diminishing through this afternoon.

* Impacts... moderate... expect strong breaking waves... shore
break... and strong longshore and rip currents making swimming
difficult and dangerous.

Precautionary/preparedness actions...

Know your limits and seek ocean recreation areas best suited for
your abilities. Beachgoers... swimmers... and surfers should heed
all advice given by ocean safety officials and exercise caution.
Boaters should expect surfers and body boarders utilizing Harbor
channels to access surfing areas.